Terminal Aerodrome Forecast
Issued by NWS Greer, SC

Home | Current Version | Previous Version | Text Only | Print | Product List | Glossary On
Versions: 1 2 3 4 5 6 7 8 9 10 11 12 13 14 15 16 17 18 19 20 21 22 23 24 25 26 27 28 29 30 31 32 33 34 35 36 37 38 39 40 41 42 43 44 45
000
FTUS42 KGSP 251450 AAA
TAFCLT
TAF AMD
KCLT 251450Z 2515/2612 20003KT P6SM FEW250
     FM251700 23006KT P6SM SCT060 BKN250
     FM260000 20003KT P6SM SCT060 BKN120
     FM260900 18003KT P6SM BKN060=

USA.gov is the U.S. government's official web portal to all federal, state and local government web resources and services.